createdAt,value
2018-08-12T00:00:20.912Z,16.40
2018-08-12T00:02:49.191Z,16.40
2018-08-12T00:05:17.369Z,16.40
2018-08-12T00:07:45.570Z,16.50
2018-08-12T00:10:13.922Z,16.50
2018-08-12T00:12:42.707Z,16.40
2018-08-12T00:15:13.952Z,16.40
2018-08-12T00:17:42.348Z,16.40
2018-08-12T00:20:13.464Z,16.40
2018-08-12T00:22:41.821Z,16.40
2018-08-12T00:25:12.763Z,16.40
2018-08-12T00:27:41.122Z,16.40
2018-08-12T00:30:10.935Z,16.30
2018-08-12T00:32:39.152Z,16.30
2018-08-12T00:35:10.036Z,16.20
2018-08-12T00:37:38.248Z,16.20
2018-08-12T00:40:07.663Z,16.10
2018-08-12T00:42:36.028Z,16.10
2018-08-12T00:45:06.128Z,16.10
2018-08-12T00:47:34.335Z,16.10
2018-08-12T00:50:02.530Z,16.10
2018-08-12T00:52:30.733Z,16.10
2018-08-12T00:54:58.996Z,16.10
2018-08-12T00:57:27.189Z,16.00
2018-08-12T00:59:55.406Z,15.90
2018-08-12T01:02:23.622Z,15.70
2018-08-12T01:04:52.048Z,15.70
2018-08-12T01:07:20.275Z,15.70
2018-08-12T01:09:48.481Z,15.70
2018-08-12T01:12:16.662Z,15.70
2018-08-12T01:14:44.911Z,15.70
2018-08-12T01:17:13.092Z,15.60
2018-08-12T01:19:41.369Z,15.60
2018-08-12T01:22:09.632Z,15.50
2018-08-12T01:24:37.863Z,15.40
2018-08-12T01:27:06.052Z,15.40
2018-08-12T01:29:34.268Z,15.30
2018-08-12T01:32:02.543Z,15.30
2018-08-12T01:34:30.728Z,15.30
2018-08-12T01:36:58.930Z,15.30
2018-08-12T01:39:27.186Z,15.30
2018-08-12T01:41:55.472Z,15.30
2018-08-12T01:44:23.650Z,15.20
2018-08-12T01:46:51.868Z,15.20
2018-08-12T01:49:20.054Z,15.20
2018-08-12T01:51:48.265Z,15.20
2018-08-12T01:54:16.482Z,15.10
2018-08-12T01:56:44.666Z,15.10
2018-08-12T01:59:12.870Z,15.10
2018-08-12T02:01:41.048Z,15.10
2018-08-12T02:04:09.238Z,15.00
2018-08-12T02:06:37.468Z,15.00
2018-08-12T02:09:08.026Z,14.90
2018-08-12T02:11:36.300Z,14.90
2018-08-12T02:14:04.573Z,14.80
2018-08-12T02:16:33.030Z,14.80
2018-08-12T02:19:01.459Z,14.80
2018-08-12T02:21:29.664Z,14.80
2018-08-12T02:23:57.880Z,14.80
2018-08-12T02:26:26.112Z,14.80
2018-08-12T02:28:54.344Z,14.80
2018-08-12T02:31:22.514Z,14.80
2018-08-12T02:33:50.714Z,14.80
2018-08-12T02:36:18.910Z,14.70
2018-08-12T02:38:47.184Z,14.70
2018-08-12T02:41:15.443Z,14.60
2018-08-12T02:43:43.644Z,14.50
2018-08-12T02:46:11.865Z,14.40
2018-08-12T02:48:40.129Z,14.40
2018-08-12T02:51:08.333Z,14.30
2018-08-12T02:53:36.553Z,14.30
2018-08-12T02:56:04.735Z,14.30
2018-08-12T02:58:32.979Z,14.20
2018-08-12T03:01:01.185Z,14.10
2018-08-12T03:03:29.419Z,14.10
2018-08-12T03:05:57.647Z,14.00
2018-08-12T03:08:25.923Z,13.90
2018-08-12T03:10:54.127Z,13.80
2018-08-12T03:13:22.308Z,13.80
2018-08-12T03:15:50.502Z,13.80
2018-08-12T03:18:18.742Z,13.70
2018-08-12T03:20:47.016Z,13.70
2018-08-12T03:23:15.301Z,13.60
2018-08-12T03:25:43.571Z,13.60
2018-08-12T03:28:11.816Z,13.50
2018-08-12T03:30:40.013Z,13.50
2018-08-12T03:33:08.191Z,13.50
2018-08-12T03:35:36.398Z,13.40
2018-08-12T03:38:05.015Z,13.40
2018-08-12T03:40:33.189Z,13.40
2018-08-12T03:43:01.381Z,13.50
2018-08-12T03:45:29.603Z,13.50
2018-08-12T03:47:58.043Z,13.50
2018-08-12T03:50:26.293Z,13.40
2018-08-12T03:52:54.483Z,13.30
2018-08-12T03:55:22.692Z,13.30
2018-08-12T03:57:50.955Z,13.20
2018-08-12T04:00:19.719Z,13.20
2018-08-12T04:02:48.728Z,13.20
2018-08-12T04:05:17.621Z,13.20
2018-08-12T04:07:45.841Z,13.20
2018-08-12T04:10:14.135Z,13.10
2018-08-12T04:12:42.333Z,13.10
2018-08-12T04:15:11.513Z,13.00
2018-08-12T04:17:39.952Z,13.00
2018-08-12T04:20:09.101Z,13.00
2018-08-12T04:22:37.377Z,13.10
2018-08-12T04:25:05.700Z,13.10
2018-08-12T04:27:34.031Z,13.10
2018-08-12T04:30:02.272Z,13.20
2018-08-12T04:32:30.457Z,13.30
2018-08-12T04:34:58.667Z,13.30
2018-08-12T04:37:27.181Z,13.30
2018-08-12T04:39:55.441Z,13.40
2018-08-12T04:42:23.643Z,13.40
2018-08-12T04:44:51.842Z,13.40
2018-08-12T04:47:20.039Z,13.40
2018-08-12T04:49:48.221Z,13.40
2018-08-12T04:52:16.409Z,13.40
2018-08-12T04:54:44.619Z,13.40
2018-08-12T04:57:12.807Z,13.40
2018-08-12T04:59:41.017Z,13.40
2018-08-12T05:02:09.211Z,13.40
2018-08-12T05:04:37.445Z,13.40
2018-08-12T05:07:06.016Z,13.40
2018-08-12T05:09:34.203Z,13.40
2018-08-12T05:12:02.411Z,13.40
2018-08-12T05:14:30.610Z,13.40
2018-08-12T05:16:58.819Z,13.40
2018-08-12T05:19:26.997Z,13.40
2018-08-12T05:21:55.219Z,13.50
2018-08-12T05:24:23.413Z,13.60
2018-08-12T05:26:51.635Z,13.70
2018-08-12T05:29:19.832Z,13.70
2018-08-12T05:31:48.013Z,13.80
2018-08-12T05:34:16.195Z,13.80
2018-08-12T05:36:44.379Z,13.90
2018-08-12T05:39:13.975Z,14.00
2018-08-12T05:41:42.565Z,14.00
2018-08-12T05:44:10.785Z,14.10
2018-08-12T05:46:38.994Z,14.10
2018-08-12T05:49:07.301Z,14.20
2018-08-12T05:51:35.651Z,14.30
2018-08-12T05:54:03.760Z,14.40
2018-08-12T05:56:31.971Z,14.40
2018-08-12T05:59:00.196Z,14.50
2018-08-12T06:01:28.405Z,14.60
2018-08-12T06:03:56.601Z,14.60
2018-08-12T06:06:24.990Z,14.70
2018-08-12T06:08:53.223Z,14.70
2018-08-12T06:11:21.436Z,14.80
2018-08-12T06:13:49.753Z,15.00
2018-08-12T06:16:17.956Z,15.10
2018-08-12T06:18:46.201Z,15.20
2018-08-12T06:21:14.751Z,15.30
2018-08-12T06:23:42.951Z,15.40
2018-08-12T06:26:11.269Z,15.50
2018-08-12T06:28:39.555Z,15.70
2018-08-12T06:31:07.750Z,15.80
2018-08-12T06:33:35.984Z,16.00
2018-08-12T06:36:04.295Z,16.10
2018-08-12T06:38:32.556Z,16.30
2018-08-12T06:41:00.785Z,16.40
2018-08-12T06:43:29.018Z,16.60
2018-08-12T06:45:57.318Z,16.60
2018-08-12T06:48:25.492Z,16.80
2018-08-12T06:50:53.675Z,16.90
2018-08-12T06:53:21.880Z,17.00
2018-08-12T06:55:50.068Z,17.20
2018-08-12T06:58:18.268Z,17.30
2018-08-12T07:00:46.530Z,17.40
2018-08-12T07:03:14.724Z,17.60
2018-08-12T07:05:42.954Z,17.60
2018-08-12T07:08:11.254Z,17.70
2018-08-12T07:10:39.409Z,17.80
2018-08-12T07:13:07.653Z,17.90
2018-08-12T07:15:35.862Z,18.00
2018-08-12T07:18:04.158Z,18.10
2018-08-12T07:20:32.362Z,18.20
2018-08-12T07:23:00.644Z,18.30
2018-08-12T07:25:28.824Z,18.40
2018-08-12T07:27:57.228Z,18.50
2018-08-12T07:30:26.310Z,18.50
2018-08-12T07:32:54.572Z,18.60
2018-08-12T07:35:22.770Z,18.60
2018-08-12T07:37:51.379Z,18.70
2018-08-12T07:40:20.744Z,18.80
2018-08-12T07:42:49.822Z,19.00
2018-08-12T07:45:18.060Z,19.10
2018-08-12T07:47:46.256Z,19.20
2018-08-12T07:50:14.457Z,19.40
2018-08-12T07:52:44.012Z,19.50
2018-08-12T07:55:12.952Z,19.60
2018-08-12T07:57:41.894Z,19.70
2018-08-12T08:00:14.562Z,19.80
2018-08-12T08:02:42.772Z,19.90
2018-08-12T08:05:11.154Z,20.10
2018-08-12T08:07:39.337Z,20.20
2018-08-12T08:10:10.764Z,20.30
2018-08-12T08:12:39.517Z,20.50
2018-08-12T08:15:10.282Z,20.70
2018-08-12T08:17:39.058Z,20.90
2018-08-12T08:20:08.474Z,21.00
2018-08-12T08:22:37.018Z,21.10
2018-08-12T08:25:06.438Z,21.30
2018-08-12T08:27:34.719Z,21.50
2018-08-12T08:30:02.963Z,21.60
2018-08-12T08:32:31.162Z,21.80
2018-08-12T08:34:59.374Z,21.90
2018-08-12T08:37:27.576Z,22.10
2018-08-12T08:39:55.778Z,22.20
2018-08-12T08:42:23.970Z,22.20
2018-08-12T08:44:52.175Z,22.30
2018-08-12T08:47:20.408Z,22.40
2018-08-12T08:49:48.621Z,22.50
2018-08-12T08:52:16.813Z,22.70
2018-08-12T08:54:44.994Z,22.80
2018-08-12T08:57:13.230Z,22.90
2018-08-12T08:59:41.472Z,23.10
2018-08-12T09:02:09.640Z,23.20
2018-08-12T09:04:37.828Z,23.50
2018-08-12T09:07:06.370Z,23.80
2018-08-12T09:09:34.555Z,24.30
2018-08-12T09:12:02.810Z,24.90
2018-08-12T09:14:31.014Z,25.30
2018-08-12T09:16:59.237Z,26.00
2018-08-12T09:19:27.444Z,26.90
2018-08-12T09:21:55.632Z,27.70
2018-08-12T09:24:23.879Z,28.60
2018-08-12T09:26:52.055Z,29.50
2018-08-12T09:29:20.256Z,30.20
2018-08-12T09:31:48.517Z,30.90
2018-08-12T09:34:16.702Z,31.60
2018-08-12T09:36:45.062Z,32.20
2018-08-12T09:39:13.374Z,32.80
2018-08-12T09:41:41.582Z,33.10
2018-08-12T09:44:09.776Z,33.40
2018-08-12T09:46:37.992Z,33.60
2018-08-12T09:49:06.212Z,33.50
2018-08-12T09:51:34.437Z,33.40
2018-08-12T09:54:02.650Z,33.30
2018-08-12T09:56:30.848Z,33.30
2018-08-12T09:58:59.367Z,33.40
2018-08-12T10:01:27.628Z,33.70
2018-08-12T10:03:55.838Z,33.90
2018-08-12T10:06:24.085Z,34.20
2018-08-12T10:08:52.372Z,34.50
2018-08-12T10:11:20.552Z,34.90
2018-08-12T10:13:48.899Z,35.10
2018-08-12T10:16:17.272Z,35.70
2018-08-12T10:18:45.466Z,36.00
2018-08-12T10:21:13.668Z,36.00
2018-08-12T10:23:41.877Z,36.30
2018-08-12T10:26:10.078Z,36.80
2018-08-12T10:28:38.266Z,37.10
2018-08-12T10:31:06.461Z,37.30
2018-08-12T10:33:34.785Z,37.40
2018-08-12T10:36:02.990Z,37.40
2018-08-12T10:38:31.197Z,37.20
2018-08-12T10:40:59.379Z,37.50
2018-08-12T10:43:27.615Z,37.20
2018-08-12T10:45:55.815Z,37.20
2018-08-12T10:48:24.055Z,37.30
2018-08-12T10:50:52.336Z,37.30
2018-08-12T10:53:20.458Z,36.90
2018-08-12T10:55:48.679Z,36.90
2018-08-12T10:58:16.935Z,36.50
2018-08-12T11:00:52.585Z,36.20
2018-08-12T11:03:20.826Z,36.50
2018-08-12T11:05:50.357Z,36.90
2018-08-12T11:08:18.555Z,37.20
2018-08-12T11:10:46.777Z,37.40
2018-08-12T11:13:14.999Z,37.20
2018-08-12T11:15:43.220Z,37.00
2018-08-12T11:18:11.512Z,36.90
2018-08-12T11:20:39.727Z,37.00
2018-08-12T11:23:07.953Z,37.30
2018-08-12T11:25:36.208Z,37.70
2018-08-12T11:28:04.529Z,37.80
2018-08-12T11:30:32.724Z,38.00
2018-08-12T11:33:00.914Z,38.20
2018-08-12T11:35:29.141Z,38.50
2018-08-12T11:37:57.655Z,38.60
2018-08-12T11:40:25.819Z,38.80
2018-08-12T11:42:54.026Z,39.10
2018-08-12T11:45:22.533Z,39.00
2018-08-12T11:47:50.862Z,39.20
2018-08-12T11:50:19.195Z,38.80
2018-08-12T11:52:47.719Z,38.60
2018-08-12T11:55:17.295Z,38.90
2018-08-12T11:57:45.607Z,39.40
2018-08-12T12:00:17.463Z,39.60
2018-08-12T12:02:47.167Z,39.60
2018-08-12T12:05:15.518Z,39.50
2018-08-12T12:07:43.935Z,39.40
2018-08-12T12:10:14.697Z,39.20
2018-08-12T12:12:43.883Z,39.30
2018-08-12T12:15:13.004Z,39.20
2018-08-12T12:17:41.273Z,39.50
2018-08-12T12:20:11.227Z,39.70
2018-08-12T12:22:40.249Z,40.00
2018-08-12T12:25:10.567Z,40.40
2018-08-12T12:27:38.809Z,40.70
2018-08-12T12:30:08.987Z,40.90
2018-08-12T12:32:37.294Z,40.90
2018-08-12T12:35:05.596Z,40.30
2018-08-12T12:37:33.807Z,40.30
2018-08-12T12:40:02.046Z,40.50
2018-08-12T12:42:30.252Z,40.70
2018-08-12T12:44:58.480Z,40.20
2018-08-12T12:47:26.786Z,39.70
2018-08-12T12:49:54.978Z,39.80
2018-08-12T12:52:23.188Z,40.00
2018-08-12T12:54:51.380Z,39.80
2018-08-12T12:57:19.605Z,39.40
2018-08-12T12:59:47.796Z,39.10
2018-08-12T13:02:16.032Z,39.10
2018-08-12T13:04:44.246Z,39.50
2018-08-12T13:07:12.503Z,39.80
2018-08-12T13:09:40.742Z,40.10
2018-08-12T13:12:09.178Z,39.80
2018-08-12T13:14:37.400Z,39.50
2018-08-12T13:17:05.612Z,39.50
2018-08-12T13:19:33.816Z,39.60
2018-08-12T13:22:02.643Z,39.40
2018-08-12T13:24:30.864Z,39.60
2018-08-12T13:26:59.061Z,39.90
2018-08-12T13:29:27.280Z,39.80
2018-08-12T13:31:55.486Z,39.70
2018-08-12T13:34:23.708Z,39.30
2018-08-12T13:36:51.918Z,38.90
2018-08-12T13:39:20.176Z,38.50
2018-08-12T13:41:48.442Z,38.30
2018-08-12T13:44:16.662Z,38.50
2018-08-12T13:46:44.865Z,39.10
2018-08-12T13:49:13.136Z,39.70
2018-08-12T13:51:41.332Z,39.80
2018-08-12T13:54:09.522Z,40.00
2018-08-12T13:56:37.736Z,40.60
2018-08-12T13:59:06.468Z,40.80
2018-08-12T14:01:34.852Z,40.90
2018-08-12T14:04:03.068Z,40.90
2018-08-12T14:06:31.270Z,40.70
2018-08-12T14:08:59.530Z,40.70
2018-08-12T14:11:27.718Z,40.90
2018-08-12T14:13:55.972Z,41.10
2018-08-12T14:16:24.182Z,40.90
2018-08-12T14:18:52.465Z,41.10
2018-08-12T14:21:20.762Z,41.10
2018-08-12T14:23:49.149Z,40.80
2018-08-12T14:26:17.390Z,40.60
2018-08-12T14:28:45.967Z,40.80
2018-08-12T14:31:14.201Z,41.00
2018-08-12T14:33:42.429Z,41.10
2018-08-12T14:36:10.630Z,40.90
2018-08-12T14:38:38.872Z,40.50
2018-08-12T14:41:07.104Z,40.30
2018-08-12T14:43:35.453Z,40.00
2018-08-12T14:46:03.616Z,39.80
2018-08-12T14:48:31.898Z,39.60
2018-08-12T14:51:00.378Z,39.60
2018-08-12T14:53:28.568Z,39.50
2018-08-12T14:55:57.020Z,39.50
2018-08-12T14:58:25.284Z,39.20
2018-08-12T15:00:53.528Z,39.00
2018-08-12T15:03:21.761Z,38.70
2018-08-12T15:05:49.959Z,38.40
2018-08-12T15:08:18.244Z,38.30
2018-08-12T15:10:46.456Z,38.30
2018-08-12T15:13:14.646Z,38.30
2018-08-12T15:15:42.912Z,38.00
2018-08-12T15:18:11.217Z,37.60
2018-08-12T15:20:39.414Z,37.40
2018-08-12T15:23:08.115Z,37.20
2018-08-12T15:25:36.300Z,37.20
2018-08-12T15:28:04.574Z,37.10
2018-08-12T15:30:32.819Z,36.90
2018-08-12T15:33:01.047Z,36.70
2018-08-12T15:35:29.240Z,36.20
2018-08-12T15:37:57.668Z,35.70
2018-08-12T15:40:25.859Z,35.30
2018-08-12T15:42:54.080Z,34.90
2018-08-12T15:45:22.362Z,34.40
2018-08-12T15:47:50.615Z,34.10
2018-08-12T15:50:18.840Z,33.60
2018-08-12T15:52:47.554Z,33.30
2018-08-12T15:55:15.951Z,33.00
2018-08-12T15:57:44.150Z,32.80
2018-08-12T16:00:15.634Z,32.60
2018-08-12T16:02:44.578Z,32.40
2018-08-12T16:05:12.801Z,32.20
2018-08-12T16:07:41.010Z,32.10
2018-08-12T16:10:12.435Z,32.00
2018-08-12T16:12:40.634Z,31.90
2018-08-12T16:15:10.436Z,31.80
2018-08-12T16:17:39.220Z,31.70
2018-08-12T16:20:07.670Z,31.50
2018-08-12T16:22:35.898Z,31.30
2018-08-12T16:25:05.429Z,31.10
2018-08-12T16:27:33.638Z,31.00
2018-08-12T16:30:01.832Z,30.90
2018-08-12T16:32:30.011Z,30.90
2018-08-12T16:34:58.186Z,30.80
2018-08-12T16:37:26.384Z,30.60
2018-08-12T16:39:54.588Z,30.40
2018-08-12T16:42:22.861Z,30.20
2018-08-12T16:44:51.082Z,30.10
2018-08-12T16:47:19.273Z,30.00
2018-08-12T16:49:47.834Z,29.90
2018-08-12T16:52:16.021Z,29.80
2018-08-12T16:54:44.254Z,29.70
2018-08-12T16:57:12.437Z,29.70
2018-08-12T16:59:40.985Z,29.60
2018-08-12T17:02:09.200Z,29.60
2018-08-12T17:04:37.414Z,29.60
2018-08-12T17:07:05.771Z,29.60
2018-08-12T17:09:34.000Z,29.50
2018-08-12T17:12:02.195Z,29.40
2018-08-12T17:14:30.410Z,29.40
2018-08-12T17:16:58.659Z,29.30
2018-08-12T17:19:26.860Z,29.30
2018-08-12T17:21:55.069Z,29.40
2018-08-12T17:24:23.559Z,29.50
2018-08-12T17:26:51.767Z,29.60
2018-08-12T17:29:19.966Z,29.60
2018-08-12T17:31:48.271Z,29.60
2018-08-12T17:34:16.477Z,29.40
2018-08-12T17:36:44.653Z,29.30
2018-08-12T17:39:12.927Z,29.20
2018-08-12T17:41:41.130Z,29.10
2018-08-12T17:44:09.395Z,29.00
2018-08-12T17:46:37.617Z,28.90
2018-08-12T17:49:05.849Z,28.90
2018-08-12T17:51:34.075Z,28.80
2018-08-12T17:54:02.398Z,28.80
2018-08-12T17:56:30.741Z,28.70
2018-08-12T17:58:59.153Z,28.60
2018-08-12T18:01:27.375Z,28.60
2018-08-12T18:03:55.563Z,28.50
2018-08-12T18:06:23.794Z,28.40
2018-08-12T18:08:52.035Z,28.40
2018-08-12T18:11:20.996Z,28.30
2018-08-12T18:13:49.229Z,28.30
2018-08-12T18:16:17.429Z,28.20
2018-08-12T18:18:45.622Z,28.10
2018-08-12T18:21:13.833Z,28.10
2018-08-12T18:23:42.055Z,28.00
2018-08-12T18:26:10.283Z,27.90
2018-08-12T18:28:38.531Z,27.80
2018-08-12T18:31:06.942Z,27.70
2018-08-12T18:33:35.159Z,27.60
2018-08-12T18:36:03.375Z,27.50
2018-08-12T18:38:31.655Z,27.40
2018-08-12T18:40:59.859Z,27.30
2018-08-12T18:43:28.073Z,27.20
2018-08-12T18:45:56.265Z,27.00
2018-08-12T18:48:24.548Z,26.90
2018-08-12T18:50:52.763Z,26.80
2018-08-12T18:53:20.957Z,26.60
2018-08-12T18:55:49.159Z,26.60
2018-08-12T18:58:17.427Z,26.60
2018-08-12T19:00:45.647Z,26.50
2018-08-12T19:03:13.989Z,26.30
2018-08-12T19:05:42.273Z,26.30
2018-08-12T19:08:10.627Z,26.10
2018-08-12T19:10:38.842Z,26.00
2018-08-12T19:13:07.089Z,25.80
2018-08-12T19:15:35.323Z,25.70
2018-08-12T19:18:03.817Z,25.60
2018-08-12T19:20:31.985Z,25.50
2018-08-12T19:23:00.203Z,25.40
2018-08-12T19:25:28.443Z,25.30
2018-08-12T19:27:57.049Z,25.20
2018-08-12T19:30:25.235Z,25.10
2018-08-12T19:32:53.455Z,25.00
2018-08-12T19:35:21.630Z,25.00
2018-08-12T19:37:50.610Z,24.90
2018-08-12T19:40:18.809Z,24.90
2018-08-12T19:42:47.002Z,24.80
2018-08-12T19:45:15.215Z,24.70
2018-08-12T19:47:43.428Z,24.60
2018-08-12T19:50:11.708Z,24.40
2018-08-12T19:52:39.912Z,24.40
2018-08-12T19:55:08.432Z,24.30
2018-08-12T19:57:36.647Z,24.20
2018-08-12T20:00:05.945Z,24.10
2018-08-12T20:02:34.095Z,24.00
2018-08-12T20:05:02.301Z,23.90
2018-08-12T20:07:30.537Z,23.80
2018-08-12T20:09:58.736Z,23.80
2018-08-12T20:12:26.926Z,23.70
2018-08-12T20:14:55.141Z,23.60
2018-08-12T20:17:23.371Z,23.50
2018-08-12T20:19:51.576Z,23.50
2018-08-12T20:22:19.800Z,23.40
2018-08-12T20:24:47.995Z,23.30
2018-08-12T20:27:16.183Z,23.20
2018-08-12T20:29:44.411Z,23.20
2018-08-12T20:32:12.591Z,23.10
2018-08-12T20:34:40.814Z,23.10
2018-08-12T20:37:09.013Z,23.00
2018-08-12T20:39:37.318Z,23.00
2018-08-12T20:42:05.436Z,22.90
2018-08-12T20:44:33.640Z,22.90
2018-08-12T20:47:01.863Z,22.80
2018-08-12T20:49:30.271Z,22.80
2018-08-12T20:51:58.485Z,22.70
2018-08-12T20:54:26.707Z,22.60
2018-08-12T20:56:54.915Z,22.60
2018-08-12T20:59:23.194Z,22.50
2018-08-12T21:01:51.356Z,22.50
2018-08-12T21:04:19.559Z,22.40
2018-08-12T21:06:47.757Z,22.30
2018-08-12T21:09:15.960Z,22.30
2018-08-12T21:11:44.212Z,22.20
2018-08-12T21:14:12.376Z,22.10
2018-08-12T21:16:40.568Z,22.10
2018-08-12T21:19:08.914Z,22.00
2018-08-12T21:21:37.191Z,22.00
2018-08-12T21:24:05.562Z,21.90
2018-08-12T21:26:33.840Z,21.80
2018-08-12T21:29:02.101Z,21.70
2018-08-12T21:31:30.330Z,21.60
2018-08-12T21:33:58.530Z,21.60
2018-08-12T21:36:26.782Z,21.50
2018-08-12T21:38:55.008Z,21.40
2018-08-12T21:41:23.232Z,21.40
2018-08-12T21:43:51.456Z,21.40
2018-08-12T21:46:19.646Z,21.30
2018-08-12T21:48:48.278Z,21.30
2018-08-12T21:51:16.464Z,21.30
2018-08-12T21:53:44.861Z,21.20
2018-08-12T21:56:13.045Z,21.10
2018-08-12T21:58:41.280Z,21.00
2018-08-12T22:01:09.555Z,20.90
2018-08-12T22:03:37.771Z,20.90
2018-08-12T22:06:06.186Z,20.80
2018-08-12T22:08:34.305Z,20.80
2018-08-12T22:11:02.480Z,20.70
2018-08-12T22:13:30.744Z,20.60
2018-08-12T22:15:58.925Z,20.60
2018-08-12T22:18:27.188Z,20.60
2018-08-12T22:20:55.429Z,20.50
2018-08-12T22:23:23.642Z,20.50
2018-08-12T22:25:51.823Z,20.50
2018-08-12T22:28:20.100Z,20.50
2018-08-12T22:30:48.318Z,20.40
2018-08-12T22:33:16.548Z,20.40
2018-08-12T22:35:44.810Z,20.40
2018-08-12T22:38:13.093Z,20.30
2018-08-12T22:40:41.308Z,20.30
2018-08-12T22:43:09.504Z,20.20
2018-08-12T22:45:37.698Z,20.20
2018-08-12T22:48:06.718Z,20.10
2018-08-12T22:50:34.896Z,20.10
2018-08-12T22:53:03.146Z,20.00
2018-08-12T22:55:31.338Z,20.10
2018-08-12T22:57:59.676Z,20.00
2018-08-12T23:00:27.906Z,20.00
2018-08-12T23:02:56.204Z,20.00
2018-08-12T23:05:24.430Z,20.00
2018-08-12T23:07:52.752Z,20.00
2018-08-12T23:10:20.884Z,19.90
2018-08-12T23:12:49.062Z,19.90
2018-08-12T23:15:28.575Z,19.90
2018-08-12T23:17:57.182Z,19.80
2018-08-12T23:20:25.405Z,19.70
2018-08-12T23:22:53.586Z,19.60
2018-08-12T23:25:21.780Z,19.50
2018-08-12T23:27:49.996Z,19.50
2018-08-12T23:30:18.186Z,19.50
2018-08-12T23:32:46.417Z,19.50
2018-08-12T23:35:14.620Z,19.50
2018-08-12T23:37:42.844Z,19.40
2018-08-12T23:40:11.062Z,19.30
2018-08-12T23:42:39.229Z,19.30
2018-08-12T23:45:07.431Z,19.30
2018-08-12T23:47:35.657Z,19.10
2018-08-12T23:50:03.879Z,19.00
2018-08-12T23:52:32.157Z,18.90
2018-08-12T23:55:00.421Z,18.90
2018-08-12T23:57:28.720Z,18.90
2018-08-12T23:59:56.965Z,18.80
